Nearby METAR Reports

 

KAEG - Double Eagle Ii, New Mexico, USA
Distance from station: WNW 2mi, 15km
Updated: 10/21/2018 1:55am
Clear
Clear
 Wind from NW
Wind: NW 8 mph , 13 km/h
Temperature: 45°F , 7°C
Wind Chill: 41°F , 5°C
Dew Point: 28°F , -2°C
Humidity: 53%
Barometer: 30.41 inHg , 1029.8 hPa
Clouds: Clear
Visibility: 10 miles , 16 km
2018/10/21 07:55 KAEG 210755Z AUTO 32007KT 10SM CLR 07/M02 A3041 RMK AO2 T00671016
KABQ - Albuquerque, New Mexico, USA
Distance from station: SE 4mi, 5km
Updated: 10/21/2018 1:52am
Mostly cloudy
Mostly cloudy
 Wind from NE
Wind: NE 13 mph , 20 km/h
Temperature: 54°F , 12°C
Dew Point: 32°F , 0°C
Humidity: 44%
Barometer: 30.38 inHg , 1028.8 hPa
Clouds: Mostly cloudy
Visibility: 10 miles , 16 km
Cloud details: Few Clouds 8500 ft
Mostly cloudy 25000 ft
2018/10/21 07:52 KABQ 210752Z 04011KT 10SM FEW085 BKN250 12/00 A3038 RMK AO2 SLP233 T01220000
 
KE80 - Belen, New Mexico, USA
Distance from station: SSW 32mi, 51km
Updated: 10/21/2018 1:55am
Overcast
Overcast
 Wind from SE
Wind: SE 10 mph , 17 km/h
Temperature: 55°F , 13°C
Dew Point: 37°F , 3°C
Humidity: 51%
Barometer: 30.38 inHg , 1028.8 hPa
Clouds: Overcast
Visibility: 10 miles , 16 km
Cloud details: Overcast 9500 ft
2018/10/21 07:55 KE80 210755Z AUTO 14009KT 10SM OVC095 13/03 A3038 RMK AO2 T01290027
K0E0 - Moriarty, New Mexico, USA
Distance from station: E 37mi, 60km
Updated: 10/21/2018 1:55am
Clear
Clear
 Wind from ENE
Wind: ENE 3 mph , 6 km/h
Temperature: 34°F , 1°C
Dew Point: 32°F , 0°C
Humidity: 93%
Barometer: 30.44 inHg , 1030.8 hPa
Clouds: Clear
Visibility: 10 miles , 16 km
2018/10/21 07:55 K0E0 210755Z AUTO 06003KT 10SM CLR 01/00 A3044 RMK AO2 T00101002
 
KSAF - Santa Fe, New Mexico, USA
Distance from station: NE 48mi, 77km
Updated: 10/21/2018 1:53am
Clear
Clear
 Wind from S
Wind: S 3 mph , 6 km/h
Temperature: 45°F , 7°C
Dew Point: 30°F , -1°C
Humidity: 57%
Barometer: 30.43 inHg , 1030.5 hPa
Clouds: Clear
Visibility: 10 miles , 16 km
2018/10/21 07:53 KSAF 210753Z AUTO 17003KT 10SM CLR 07/M01 A3043 RMK AO2 SLP244 T00721011